Time;durP1;ratioP1;P1;durP2;ratioP2;P2;SDS_P1;SDS_P2;PMS_P1;PMS_P2;Temp;Humidity;BMP_temperature;BMP_pressure;BME280_temperature;BME280_humidity;BME280_pressure;Samples;Min_cycle;Max_cycle;Signal;HPM_P1;HPM_P2
2022/12/16 00:02:42;;;;;;;42.47;28.67;;;0.60;99.90;1.80;95486.00;;;;4992487;28;20427;-83
2022/12/16 00:05:31;;;;;;;36.70;25.43;;;0.60;99.90;1.70;95478.00;;;;4992595;28;20434;-83
2022/12/16 00:08:20;;;;;;;40.20;24.00;;;0.60;99.90;1.80;95489.00;;;;4986867;28;20435;-83
2022/12/16 00:11:11;;;;;;;37.03;26.60;;;0.60;99.90;1.70;95484.00;;;;4991197;28;20434;-83
2022/12/16 00:14:00;;;;;;;42.87;27.67;;;0.50;99.90;1.80;95479.00;;;;4990578;28;20956;-83
2022/12/16 00:16:49;;;;;;;35.93;25.20;;;0.60;99.90;1.80;95469.00;;;;4994905;28;20441;-84
2022/12/16 00:19:38;;;;;;;40.67;24.57;;;0.70;99.90;1.80;95449.00;;;;4986531;28;20473;-83
2022/12/16 00:22:27;;;;;;;39.87;25.50;;;0.60;99.90;1.80;95445.00;;;;4998824;28;20817;-83
2022/12/16 00:25:16;;;;;;;40.27;23.87;;;0.70;99.90;1.70;95432.00;;;;5013295;28;20969;-82
2022/12/16 00:28:06;;;;;;;42.77;27.07;;;0.50;99.90;1.80;95435.00;;;;4981053;28;20808;-83
2022/12/16 00:30:56;;;;;;;41.80;24.83;;;0.70;99.90;1.80;95419.00;;;;4974690;28;20812;-83
2022/12/16 00:33:45;;;;;;;34.63;25.17;;;0.60;99.90;1.80;95406.00;;;;4988310;28;20430;-83
2022/12/16 00:36:34;;;;;;;39.53;27.90;;;0.70;99.90;1.80;95387.00;;;;5007091;28;20425;-83
2022/12/16 00:39:23;;;;;;;43.10;26.83;;;0.70;99.90;1.80;95393.00;;;;5012481;28;20476;-83
2022/12/16 00:42:12;;;;;;;47.97;28.17;;;0.60;99.90;1.80;95403.00;;;;4993578;28;20437;-83
2022/12/16 00:45:03;;;;;;;39.93;26.40;;;0.70;99.90;1.70;95417.00;;;;5007524;28;20959;-83
2022/12/16 00:47:52;;;;;;;41.23;28.60;;;0.70;99.90;1.70;95426.00;;;;4982836;28;20925;-83
2022/12/16 00:50:41;;;;;;;39.70;25.27;;;0.60;99.90;1.80;95439.00;;;;4988793;28;20469;-83
2022/12/16 00:53:30;;;;;;;43.47;26.70;;;0.40;99.90;1.80;95446.00;;;;4999332;28;20443;-83
2022/12/16 00:56:19;;;;;;;42.77;29.27;;;0.60;99.90;1.80;95450.00;;;;4986773;28;20922;-83
2022/12/16 00:59:08;;;;;;;45.23;27.93;;;0.60;99.90;1.80;95440.00;;;;4980723;28;21011;-83
2022/12/16 01:01:58;;;;;;;42.87;27.40;;;0.60;99.90;1.80;95432.00;;;;4990675;28;20464;-84
2022/12/16 01:04:47;;;;;;;48.60;28.67;;;0.60;99.90;1.80;95437.00;;;;4994802;28;20445;-83
2022/12/16 01:07:36;;;;;;;40.40;26.10;;;0.70;99.90;1.80;95436.00;;;;4979211;28;20813;-84
2022/12/16 01:10:26;;;;;;;42.23;28.80;;;0.70;99.90;1.80;95431.00;;;;4979315;28;21008;-84
2022/12/16 01:13:15;;;;;;;44.40;28.70;;;0.70;99.90;1.80;95417.00;;;;5012415;28;20543;-83
2022/12/16 01:16:04;;;;;;;42.33;26.53;;;0.50;99.90;1.80;95406.00;;;;5013148;28;21111;-83
2022/12/16 01:18:55;;;;;;;41.70;25.13;;;0.60;99.90;1.80;95409.00;;;;4984982;28;20477;-83
2022/12/16 01:21:44;;;;;;;42.43;26.13;;;0.60;99.90;1.80;95406.00;;;;4989030;28;20449;-83
2022/12/16 01:24:33;;;;;;;36.07;23.13;;;0.50;99.90;1.80;95406.00;;;;4980731;28;20435;-83
2022/12/16 01:27:22;;;;;;;38.23;23.57;;;0.60;99.90;1.80;95407.00;;;;4991875;28;20964;-83
2022/12/16 01:30:12;;;;;;;45.77;25.93;;;0.70;99.90;1.70;95403.00;;;;5000358;28;20491;-83
2022/12/16 01:33:01;;;;;;;39.80;27.40;;;0.70;99.90;1.70;95370.00;;;;5012646;28;20442;-83
2022/12/16 01:36:00;;;;;;;40.73;27.63;;;0.60;99.90;1.70;95359.00;;;;4989869;28;20433;-84
2022/12/16 01:38:49;;;;;;;44.80;26.90;;;0.60;99.90;1.70;95345.00;;;;5011122;28;20506;-83
2022/12/16 01:41:38;;;;;;;41.57;25.50;;;0.50;99.90;1.60;95356.00;;;;5012278;28;20437;-84
2022/12/16 01:44:27;;;;;;;38.20;25.73;;;0.60;99.90;1.50;95362.00;;;;5015054;28;20437;-83
2022/12/16 01:47:19;;;;;;;36.10;25.60;;;0.50;99.90;1.40;95363.00;;;;5034981;28;20448;-82
2022/12/16 01:50:16;;;;;;;36.70;26.10;;;0.60;99.90;1.50;95366.00;;;;5036707;28;20463;-83
2022/12/16 01:53:07;;;;;;;37.00;26.00;;;0.30;99.90;1.60;95369.00;;;;5014265;28;20951;-84
2022/12/16 01:55:56;;;;;;;40.57;26.97;;;0.40;99.90;1.60;95366.00;;;;4998470;28;20436;-84
2022/12/16 01:58:46;;;;;;;42.50;26.63;;;0.60;99.90;1.60;95373.00;;;;4983355;28;20477;-84
2022/12/16 02:01:35;;;;;;;33.73;25.10;;;0.40;99.90;1.60;95362.00;;;;4994518;28;20962;-83
2022/12/16 02:04:24;;;;;;;40.03;25.73;;;0.50;99.90;1.60;95351.00;;;;4999243;28;20441;-84
2022/12/16 02:07:13;;;;;;;37.90;26.07;;;0.50;99.90;1.60;95344.00;;;;4991155;28;20439;-84
2022/12/16 02:10:04;;;;;;;43.03;26.73;;;0.40;99.90;1.70;95326.00;;;;4981099;28;20446;-84
2022/12/16 02:13:03;;;;;;;41.93;26.57;;;0.50;99.90;1.80;95315.00;;;;4976990;28;20435;-86
2022/12/16 02:16:04;;;;;;;36.93;25.43;;;0.60;99.90;1.70;95325.00;;;;5007920;28;20441;-86
2022/12/16 02:19:04;;;;;;;30.53;20.53;;;0.60;99.90;1.30;95346.00;;;;4991585;28;20461;-86
2022/12/16 02:22:10;;;;;;;39.07;23.07;;;0.60;99.90;1.10;95347.00;;;;4987734;28;20431;-86
2022/12/16 02:25:46;;;;;;;40.23;26.37;;;0.50;99.90;1.20;95340.00;;;;5002290;28;20424;-86
2022/12/16 02:29:14;;;;;;;37.50;25.10;;;0.50;99.90;1.30;95345.00;;;;4984478;28;20981;-85
2022/12/16 02:32:13;;;;;;;47.93;26.83;;;0.30;99.90;1.40;95339.00;;;;4998109;28;20445;-86
2022/12/16 02:35:10;;;;;;;43.60;25.03;;;0.40;99.90;1.40;95346.00;;;;4989918;28;20940;-85
2022/12/16 02:38:14;;;;;;;43.20;28.97;;;0.50;99.90;1.30;95364.00;;;;4999582;28;20430;-86
2022/12/16 02:41:06;;;;;;;40.60;26.43;;;0.40;99.90;1.50;95340.00;;;;4990119;28;20429;-86
2022/12/16 02:44:00;;;;;;;44.30;28.90;;;0.40;99.90;1.60;95325.00;;;;4984157;28;20430;-86
2022/12/16 02:46:55;;;;;;;41.00;25.20;;;0.30;99.90;1.70;95333.00;;;;4999189;28;20449;-86
2022/12/16 02:49:51;;;;;;;41.50;26.57;;;0.60;99.90;1.60;95323.00;;;;4994361;28;20446;-86
2022/12/16 02:52:40;;;;;;;45.50;25.27;;;0.40;99.90;1.50;95327.00;;;;5009921;28;20426;-86
2022/12/16 02:55:35;;;;;;;41.93;25.63;;;0.60;99.90;1.40;95293.00;;;;4993717;28;20423;-86
2022/12/16 02:58:35;;;;;;;42.60;26.10;;;0.40;99.90;1.30;95283.00;;;;4989842;28;20440;-86
2022/12/16 03:01:33;;;;;;;40.50;25.27;;;0.40;99.90;1.20;95280.00;;;;4994531;28;20446;-86
2022/12/16 03:04:31;;;;;;;41.33;26.23;;;0.40;99.90;1.20;95274.00;;;;4988911;28;21064;-86
2022/12/16 03:07:25;;;;;;;40.90;27.10;;;0.40;99.90;1.10;95257.00;;;;4987624;28;20427;-84
2022/12/16 03:10:18;;;;;;;41.87;27.13;;;0.30;99.90;1.20;95229.00;;;;4979221;28;20463;-85
2022/12/16 03:13:09;;;;;;;37.90;25.87;;;0.50;99.90;1.40;95219.00;;;;4991050;28;20957;-84
2022/12/16 03:16:01;;;;;;;44.40;27.63;;;0.40;99.90;1.40;95216.00;;;;5014380;28;20509;-84
2022/12/16 03:18:55;;;;;;;41.00;28.87;;;0.30;99.90;1.50;95242.00;;;;5012528;28;20445;-84
2022/12/16 03:21:50;;;;;;;35.73;23.50;;;0.40;99.90;1.50;95237.00;;;;5014923;28;20430;-85
2022/12/16 03:24:41;;;;;;;39.77;27.33;;;0.40;99.90;1.40;95243.00;;;;4988454;28;20434;-85
2022/12/16 03:27:40;;;;;;;39.47;25.13;;;0.40;99.90;1.60;95237.00;;;;4991051;28;20453;-85
2022/12/16 03:30:34;;;;;;;41.23;26.00;;;0.70;99.90;1.60;95246.00;;;;4990641;28;20438;-85
2022/12/16 03:33:29;;;;;;;42.40;27.03;;;-0.50;99.90;1.70;95258.00;;;;5008158;28;20520;-84
2022/12/16 03:36:22;;;;;;;39.27;25.83;;;0.50;99.90;1.50;95275.00;;;;4994563;28;20481;-84
2022/12/16 03:39:13;;;;;;;39.97;26.70;;;0.50;99.90;1.60;95244.00;;;;5002723;28;20449;-85
2022/12/16 03:42:05;;;;;;;45.30;25.17;;;0.50;99.90;1.50;95231.00;;;;5017735;28;20429;-85
2022/12/16 03:44:54;;;;;;;41.13;27.47;;;0.40;99.90;1.50;95240.00;;;;5014512;28;20433;-85
2022/12/16 03:47:43;;;;;;;44.23;29.20;;;0.50;99.90;1.50;95237.00;;;;5001318;28;20431;-85
2022/12/16 03:50:34;;;;;;;38.50;26.10;;;0.40;99.90;1.50;95227.00;;;;4988983;28;20460;-84
2022/12/16 03:53:25;;;;;;;40.87;24.53;;;0.50;99.90;1.40;95249.00;;;;4997643;28;20429;-84
2022/12/16 03:56:15;;;;;;;44.00;30.87;;;0.60;99.90;1.40;95251.00;;;;5017200;28;20438;-84
2022/12/16 03:59:05;;;;;;;33.23;26.33;;;0.40;99.90;1.50;95252.00;;;;5001520;28;20449;-84
2022/12/16 04:01:54;;;;;;;40.20;25.40;;;0.60;99.90;1.40;95271.00;;;;5007122;28;21108;-85
2022/12/16 04:04:43;;;;;;;38.80;25.20;;;0.50;99.90;1.30;95277.00;;;;4999434;28;20429;-85
2022/12/16 04:07:32;;;;;;;46.73;30.53;;;0.40;99.90;1.40;95270.00;;;;4987456;28;20454;-84
2022/12/16 04:24:17;;;;;;;41.43;27.03;;;0.40;99.90;1.60;95260.00;;;;4984174;28;20443;-85
2022/12/16 04:25:58;;;;;;;43.93;26.10;;;0.70;99.90;1.40;95227.00;;;;4998931;28;20433;-85
2022/12/16 04:28:47;;;;;;;49.20;28.07;;;0.60;99.90;1.30;95223.00;;;;5000424;28;20446;-84
2022/12/16 04:31:37;;;;;;;39.87;26.27;;;0.50;99.90;1.40;95203.00;;;;5012215;28;20898;-85
2022/12/16 04:34:25;;;;;;;43.17;27.97;;;0.40;99.90;1.30;95197.00;;;;5009501;28;20994;-85
